sensor_id;sensor_type;location;lat;lon;timestamp;P1;durP1;ratioP1;P2;durP2;ratioP2
10335;SDS011;5213;53.548;9.930;2022-09-12T00:01:30;11.25;;;8.73;;
10335;SDS011;5213;53.548;9.930;2022-09-12T00:03:58;10.75;;;8.88;;
10335;SDS011;5213;53.548;9.930;2022-09-12T00:06:26;9.40;;;8.50;;
10335;SDS011;5213;53.548;9.930;2022-09-12T00:08:56;9.48;;;8.25;;
10335;SDS011;5213;53.548;9.930;2022-09-12T00:11:23;10.57;;;8.80;;
10335;SDS011;5213;53.548;9.930;2022-09-12T00:13:50;13.32;;;9.57;;
10335;SDS011;5213;53.548;9.930;2022-09-12T00:16:20;11.40;;;9.73;;
10335;SDS011;5213;53.548;9.930;2022-09-12T00:18:48;12.45;;;9.95;;
10335;SDS011;5213;53.548;9.930;2022-09-12T00:21:14;12.00;;;9.48;;
10335;SDS011;5213;53.548;9.930;2022-09-12T00:23:41;11.57;;;9.80;;
10335;SDS011;5213;53.548;9.930;2022-09-12T00:26:07;10.20;;;9.27;;
10335;SDS011;5213;53.548;9.930;2022-09-12T00:28:33;10.65;;;9.65;;
10335;SDS011;5213;53.548;9.930;2022-09-12T00:31:03;12.70;;;10.15;;
10335;SDS011;5213;53.548;9.930;2022-09-12T00:33:30;11.40;;;10.20;;
10335;SDS011;5213;53.548;9.930;2022-09-12T00:35:56;11.75;;;10.40;;
10335;SDS011;5213;53.548;9.930;2022-09-12T00:38:22;11.23;;;10.07;;
10335;SDS011;5213;53.548;9.930;2022-09-12T00:40:48;10.55;;;9.50;;
10335;SDS011;5213;53.548;9.930;2022-09-12T00:43:36;10.95;;;9.70;;
10335;SDS011;5213;53.548;9.930;2022-09-12T00:46:09;10.23;;;9.23;;
10335;SDS011;5213;53.548;9.930;2022-09-12T00:48:51;10.05;;;9.00;;
10335;SDS011;5213;53.548;9.930;2022-09-12T00:51:24;9.20;;;8.30;;
10335;SDS011;5213;53.548;9.930;2022-09-12T00:53:51;9.27;;;8.38;;
10335;SDS011;5213;53.548;9.930;2022-09-12T00:56:19;9.45;;;8.55;;
10335;SDS011;5213;53.548;9.930;2022-09-12T00:58:53;9.35;;;8.30;;
10335;SDS011;5213;53.548;9.930;2022-09-12T01:01:23;10.13;;;9.00;;
10335;SDS011;5213;53.548;9.930;2022-09-12T01:03:49;12.82;;;9.90;;
10335;SDS011;5213;53.548;9.930;2022-09-12T01:06:20;10.35;;;9.40;;
10335;SDS011;5213;53.548;9.930;2022-09-12T01:08:56;10.65;;;9.55;;
10335;SDS011;5213;53.548;9.930;2022-09-12T01:11:23;11.15;;;9.63;;
10335;SDS011;5213;53.548;9.930;2022-09-12T01:13:49;12.15;;;10.25;;
10335;SDS011;5213;53.548;9.930;2022-09-12T01:16:15;10.38;;;9.27;;
10335;SDS011;5213;53.548;9.930;2022-09-12T01:18:54;13.48;;;10.18;;
10335;SDS011;5213;53.548;9.930;2022-09-12T01:26:57;10.48;;;9.38;;
10335;SDS011;5213;53.548;9.930;2022-09-12T01:32:26;12.20;;;9.18;;
10335;SDS011;5213;53.548;9.930;2022-09-12T01:40:49;10.98;;;9.90;;
10335;SDS011;5213;53.548;9.930;2022-09-12T01:43:33;11.35;;;9.77;;
10335;SDS011;5213;53.548;9.930;2022-09-12T01:46:49;16.60;;;11.52;;
10335;SDS011;5213;53.548;9.930;2022-09-12T01:49:13;12.48;;;11.20;;
10335;SDS011;5213;53.548;9.930;2022-09-12T01:54:37;14.68;;;12.70;;
10335;SDS011;5213;53.548;9.930;2022-09-12T01:57:12;15.05;;;13.45;;
10335;SDS011;5213;53.548;9.930;2022-09-12T01:59:52;16.92;;;13.73;;
10335;SDS011;5213;53.548;9.930;2022-09-12T02:02:27;15.75;;;13.88;;
10335;SDS011;5213;53.548;9.930;2022-09-12T02:05:08;15.38;;;13.77;;
10335;SDS011;5213;53.548;9.930;2022-09-12T02:07:39;15.25;;;13.65;;
10335;SDS011;5213;53.548;9.930;2022-09-12T02:10:21;14.15;;;12.65;;
10335;SDS011;5213;53.548;9.930;2022-09-12T02:15:39;12.88;;;11.68;;
10335;SDS011;5213;53.548;9.930;2022-09-12T02:18:08;15.93;;;12.95;;
10335;SDS011;5213;53.548;9.930;2022-09-12T02:20:38;14.65;;;13.10;;
10335;SDS011;5213;53.548;9.930;2022-09-12T02:23:06;14.95;;;13.07;;
10335;SDS011;5213;53.548;9.930;2022-09-12T02:25:37;16.05;;;13.27;;
10335;SDS011;5213;53.548;9.930;2022-09-12T02:28:11;14.98;;;13.38;;
10335;SDS011;5213;53.548;9.930;2022-09-12T02:30:42;17.75;;;14.80;;
10335;SDS011;5213;53.548;9.930;2022-09-12T02:36:02;15.80;;;14.20;;
10335;SDS011;5213;53.548;9.930;2022-09-12T02:38:48;18.02;;;15.13;;
10335;SDS011;5213;53.548;9.930;2022-09-12T02:41:17;17.25;;;15.13;;
10335;SDS011;5213;53.548;9.930;2022-09-12T02:43:44;19.35;;;15.93;;
10335;SDS011;5213;53.548;9.930;2022-09-12T02:46:12;17.58;;;15.40;;
10335;SDS011;5213;53.548;9.930;2022-09-12T02:48:44;18.55;;;16.65;;
10335;SDS011;5213;53.548;9.930;2022-09-12T02:51:10;19.23;;;16.52;;
10335;SDS011;5213;53.548;9.930;2022-09-12T02:53:36;20.83;;;17.05;;
10335;SDS011;5213;53.548;9.930;2022-09-12T02:56:03;22.00;;;18.52;;
10335;SDS011;5213;53.548;9.930;2022-09-12T02:58:31;22.05;;;18.35;;
10335;SDS011;5213;53.548;9.930;2022-09-12T03:03:26;22.58;;;18.23;;
10335;SDS011;5213;53.548;9.930;2022-09-12T03:06:31;26.02;;;20.52;;
10335;SDS011;5213;53.548;9.930;2022-09-12T03:23:35;29.23;;;23.23;;
10335;SDS011;5213;53.548;9.930;2022-09-12T03:26:09;28.67;;;22.13;;
10335;SDS011;5213;53.548;9.930;2022-09-12T03:28:40;32.00;;;23.25;;
10335;SDS011;5213;53.548;9.930;2022-09-12T03:31:14;30.80;;;23.15;;
10335;SDS011;5213;53.548;9.930;2022-09-12T03:33:41;29.60;;;22.85;;
10335;SDS011;5213;53.548;9.930;2022-09-12T03:36:14;30.95;;;22.20;;
10335;SDS011;5213;53.548;9.930;2022-09-12T03:38:43;32.03;;;24.65;;
10335;SDS011;5213;53.548;9.930;2022-09-12T03:41:09;32.20;;;23.90;;
10335;SDS011;5213;53.548;9.930;2022-09-12T03:43:35;34.00;;;23.52;;
10335;SDS011;5213;53.548;9.930;2022-09-12T03:46:00;29.65;;;22.58;;
10335;SDS011;5213;53.548;9.930;2022-09-12T03:48:26;32.13;;;23.92;;
10335;SDS011;5213;53.548;9.930;2022-09-12T03:50:52;33.47;;;23.17;;
10335;SDS011;5213;53.548;9.930;2022-09-12T03:53:17;31.58;;;22.70;;
10335;SDS011;5213;53.548;9.930;2022-09-12T03:55:43;29.55;;;22.83;;
10335;SDS011;5213;53.548;9.930;2022-09-12T03:58:09;30.95;;;22.70;;
10335;SDS011;5213;53.548;9.930;2022-09-12T04:00:34;31.45;;;22.70;;
10335;SDS011;5213;53.548;9.930;2022-09-12T04:03:01;32.55;;;23.25;;
10335;SDS011;5213;53.548;9.930;2022-09-12T04:05:27;34.85;;;24.27;;
10335;SDS011;5213;53.548;9.930;2022-09-12T04:07:52;31.25;;;23.67;;
10335;SDS011;5213;53.548;9.930;2022-09-12T04:10:18;32.83;;;24.02;;
10335;SDS011;5213;53.548;9.930;2022-09-12T04:12:44;31.40;;;22.95;;
10335;SDS011;5213;53.548;9.930;2022-09-12T04:15:09;31.83;;;21.83;;
10335;SDS011;5213;53.548;9.930;2022-09-12T04:17:35;29.42;;;21.50;;
10335;SDS011;5213;53.548;9.930;2022-09-12T04:20:01;30.05;;;21.42;;
10335;SDS011;5213;53.548;9.930;2022-09-12T04:22:27;31.30;;;22.75;;
10335;SDS011;5213;53.548;9.930;2022-09-12T04:24:54;31.45;;;22.10;;
10335;SDS011;5213;53.548;9.930;2022-09-12T04:27:19;28.17;;;21.38;;
10335;SDS011;5213;53.548;9.930;2022-09-12T04:29:45;32.67;;;22.17;;
10335;SDS011;5213;53.548;9.930;2022-09-12T04:32:10;32.05;;;22.75;;
10335;SDS011;5213;53.548;9.930;2022-09-12T04:34:36;39.40;;;25.05;;
10335;SDS011;5213;53.548;9.930;2022-09-12T04:37:03;40.78;;;26.52;;
10335;SDS011;5213;53.548;9.930;2022-09-12T04:39:28;47.53;;;27.83;;
10335;SDS011;5213;53.548;9.930;2022-09-12T04:41:54;47.63;;;28.23;;
10335;SDS011;5213;53.548;9.930;2022-09-12T04:44:20;50.00;;;29.58;;
10335;SDS011;5213;53.548;9.930;2022-09-12T04:46:46;47.97;;;27.58;;
10335;SDS011;5213;53.548;9.930;2022-09-12T04:49:12;46.08;;;27.77;;
10335;SDS011;5213;53.548;9.930;2022-09-12T04:51:40;52.20;;;29.65;;
10335;SDS011;5213;53.548;9.930;2022-09-12T04:54:11;51.60;;;29.70;;
10335;SDS011;5213;53.548;9.930;2022-09-12T04:56:39;55.80;;;30.15;;
10335;SDS011;5213;53.548;9.930;2022-09-12T04:59:07;53.30;;;30.13;;
10335;SDS011;5213;53.548;9.930;2022-09-12T05:01:34;51.28;;;30.27;;
10335;SDS011;5213;53.548;9.930;2022-09-12T05:04:00;50.92;;;29.38;;
10335;SDS011;5213;53.548;9.930;2022-09-12T05:06:27;49.05;;;28.83;;
10335;SDS011;5213;53.548;9.930;2022-09-12T05:08:58;48.53;;;28.65;;
10335;SDS011;5213;53.548;9.930;2022-09-12T05:11:27;49.40;;;28.63;;
10335;SDS011;5213;53.548;9.930;2022-09-12T05:13:54;49.80;;;27.70;;
10335;SDS011;5213;53.548;9.930;2022-09-12T05:16:21;53.47;;;29.02;;
10335;SDS011;5213;53.548;9.930;2022-09-12T05:18:47;50.08;;;28.20;;
10335;SDS011;5213;53.548;9.930;2022-09-12T05:21:15;49.25;;;27.80;;
10335;SDS011;5213;53.548;9.930;2022-09-12T05:23:42;50.05;;;28.35;;
10335;SDS011;5213;53.548;9.930;2022-09-12T05:26:12;43.13;;;27.00;;
10335;SDS011;5213;53.548;9.930;2022-09-12T05:28:39;50.22;;;28.70;;
10335;SDS011;5213;53.548;9.930;2022-09-12T05:33:45;51.05;;;28.83;;
10335;SDS011;5213;53.548;9.930;2022-09-12T05:36:14;45.97;;;27.88;;
10335;SDS011;5213;53.548;9.930;2022-09-12T05:38:41;49.78;;;29.40;;
10335;SDS011;5213;53.548;9.930;2022-09-12T05:41:12;45.50;;;26.98;;
10335;SDS011;5213;53.548;9.930;2022-09-12T05:43:39;45.72;;;27.50;;
10335;SDS011;5213;53.548;9.930;2022-09-12T05:46:16;47.95;;;27.13;;
10335;SDS011;5213;53.548;9.930;2022-09-12T05:48:44;35.63;;;24.33;;
10335;SDS011;5213;53.548;9.930;2022-09-12T05:51:30;36.40;;;23.83;;
10335;SDS011;5213;53.548;9.930;2022-09-12T05:53:58;35.10;;;22.38;;
10335;SDS011;5213;53.548;9.930;2022-09-12T05:56:28;34.10;;;23.27;;
10335;SDS011;5213;53.548;9.930;2022-09-12T05:58:57;37.28;;;23.95;;
10335;SDS011;5213;53.548;9.930;2022-09-12T06:01:25;36.35;;;24.70;;
10335;SDS011;5213;53.548;9.930;2022-09-12T06:03:52;39.78;;;24.92;;
10335;SDS011;5213;53.548;9.930;2022-09-12T06:06:20;35.22;;;23.17;;
10335;SDS011;5213;53.548;9.930;2022-09-12T06:08:48;30.23;;;22.35;;
10335;SDS011;5213;53.548;9.930;2022-09-12T06:11:17;33.70;;;23.02;;
10335;SDS011;5213;53.548;9.930;2022-09-12T06:13:48;32.72;;;23.02;;
10335;SDS011;5213;53.548;9.930;2022-09-12T06:16:16;29.05;;;20.85;;
10335;SDS011;5213;53.548;9.930;2022-09-12T06:18:57;28.75;;;20.67;;
10335;SDS011;5213;53.548;9.930;2022-09-12T06:21:24;22.90;;;19.30;;
10335;SDS011;5213;53.548;9.930;2022-09-12T06:23:52;21.83;;;18.17;;
10335;SDS011;5213;53.548;9.930;2022-09-12T06:26:18;20.90;;;17.88;;
10335;SDS011;5213;53.548;9.930;2022-09-12T06:28:49;21.83;;;18.45;;
10335;SDS011;5213;53.548;9.930;2022-09-12T06:31:16;19.52;;;17.45;;
10335;SDS011;5213;53.548;9.930;2022-09-12T06:33:44;19.92;;;16.33;;
10335;SDS011;5213;53.548;9.930;2022-09-12T06:36:14;17.23;;;15.63;;
10335;SDS011;5213;53.548;9.930;2022-09-12T06:38:43;16.95;;;15.25;;
10335;SDS011;5213;53.548;9.930;2022-09-12T06:41:15;15.95;;;14.30;;
10335;SDS011;5213;53.548;9.930;2022-09-12T06:43:41;15.90;;;14.32;;
10335;SDS011;5213;53.548;9.930;2022-09-12T06:46:07;14.65;;;13.15;;
10335;SDS011;5213;53.548;9.930;2022-09-12T06:48:34;14.40;;;12.98;;
10335;SDS011;5213;53.548;9.930;2022-09-12T06:51:04;13.77;;;12.02;;
10335;SDS011;5213;53.548;9.930;2022-09-12T06:53:34;14.02;;;11.57;;
10335;SDS011;5213;53.548;9.930;2022-09-12T06:56:11;12.63;;;11.60;;
10335;SDS011;5213;53.548;9.930;2022-09-12T06:58:36;12.35;;;11.05;;
10335;SDS011;5213;53.548;9.930;2022-09-12T07:01:12;12.77;;;11.57;;
10335;SDS011;5213;53.548;9.930;2022-09-12T07:03:39;12.02;;;10.93;;
10335;SDS011;5213;53.548;9.930;2022-09-12T07:06:11;12.23;;;10.93;;
10335;SDS011;5213;53.548;9.930;2022-09-12T07:08:39;12.60;;;11.23;;
10335;SDS011;5213;53.548;9.930;2022-09-12T07:13:33;16.08;;;11.48;;
10335;SDS011;5213;53.548;9.930;2022-09-12T07:16:02;12.52;;;11.23;;
10335;SDS011;5213;53.548;9.930;2022-09-12T07:18:34;11.70;;;9.85;;
10335;SDS011;5213;53.548;9.930;2022-09-12T07:21:09;11.32;;;9.77;;
10335;SDS011;5213;53.548;9.930;2022-09-12T07:23:36;10.95;;;9.95;;
10335;SDS011;5213;53.548;9.930;2022-09-12T07:26:04;10.57;;;9.50;;
10335;SDS011;5213;53.548;9.930;2022-09-12T07:28:30;10.82;;;9.73;;
10335;SDS011;5213;53.548;9.930;2022-09-12T07:30:57;10.60;;;9.50;;
10335;SDS011;5213;53.548;9.930;2022-09-12T07:33:32;11.02;;;9.93;;
10335;SDS011;5213;53.548;9.930;2022-09-12T07:35:59;9.50;;;8.70;;
10335;SDS011;5213;53.548;9.930;2022-09-12T07:38:29;10.35;;;9.27;;
10335;SDS011;5213;53.548;9.930;2022-09-12T07:40:55;9.55;;;8.23;;
10335;SDS011;5213;53.548;9.930;2022-09-12T07:43:21;8.95;;;8.15;;
10335;SDS011;5213;53.548;9.930;2022-09-12T07:45:47;9.00;;;8.20;;
10335;SDS011;5213;53.548;9.930;2022-09-12T07:48:12;8.90;;;8.05;;
10335;SDS011;5213;53.548;9.930;2022-09-12T07:50:38;8.45;;;7.85;;
10335;SDS011;5213;53.548;9.930;2022-09-12T07:53:04;8.48;;;7.70;;
10335;SDS011;5213;53.548;9.930;2022-09-12T07:55:31;7.72;;;7.15;;
10335;SDS011;5213;53.548;9.930;2022-09-12T07:57:56;8.20;;;7.50;;
10335;SDS011;5213;53.548;9.930;2022-09-12T08:00:22;8.00;;;7.20;;
10335;SDS011;5213;53.548;9.930;2022-09-12T08:02:51;7.78;;;7.05;;
10335;SDS011;5213;53.548;9.930;2022-09-12T08:05:18;7.90;;;7.25;;
10335;SDS011;5213;53.548;9.930;2022-09-12T08:07:44;7.82;;;7.13;;
10335;SDS011;5213;53.548;9.930;2022-09-12T08:10:10;9.13;;;8.35;;
10335;SDS011;5213;53.548;9.930;2022-09-12T08:12:36;9.68;;;8.68;;
10335;SDS011;5213;53.548;9.930;2022-09-12T08:15:02;8.13;;;7.43;;
10335;SDS011;5213;53.548;9.930;2022-09-12T08:17:28;8.18;;;7.55;;
10335;SDS011;5213;53.548;9.930;2022-09-12T08:19:53;7.97;;;7.20;;
10335;SDS011;5213;53.548;9.930;2022-09-12T08:22:20;7.35;;;6.78;;
10335;SDS011;5213;53.548;9.930;2022-09-12T08:24:46;7.10;;;6.60;;
10335;SDS011;5213;53.548;9.930;2022-09-12T08:27:12;7.30;;;6.60;;
10335;SDS011;5213;53.548;9.930;2022-09-12T08:29:38;6.65;;;6.15;;
10335;SDS011;5213;53.548;9.930;2022-09-12T08:32:04;7.32;;;6.72;;
10335;SDS011;5213;53.548;9.930;2022-09-12T08:34:30;7.15;;;6.47;;
10335;SDS011;5213;53.548;9.930;2022-09-12T08:36:56;6.80;;;6.30;;
10335;SDS011;5213;53.548;9.930;2022-09-12T08:39:22;7.60;;;6.07;;
10335;SDS011;5213;53.548;9.930;2022-09-12T08:41:54;6.40;;;5.88;;
10335;SDS011;5213;53.548;9.930;2022-09-12T08:49:52;5.85;;;5.40;;
10335;SDS011;5213;53.548;9.930;2022-09-12T08:52:23;5.75;;;5.20;;
10335;SDS011;5213;53.548;9.930;2022-09-12T08:54:50;6.40;;;4.70;;
10335;SDS011;5213;53.548;9.930;2022-09-12T08:57:16;6.50;;;5.28;;
10335;SDS011;5213;53.548;9.930;2022-09-12T08:59:44;6.50;;;5.00;;
10335;SDS011;5213;53.548;9.930;2022-09-12T09:04:58;5.40;;;4.60;;
10335;SDS011;5213;53.548;9.930;2022-09-12T09:07:45;4.50;;;4.13;;
10335;SDS011;5213;53.548;9.930;2022-09-12T09:10:19;4.65;;;4.25;;
10335;SDS011;5213;53.548;9.930;2022-09-12T09:15:42;3.65;;;3.45;;
10335;SDS011;5213;53.548;9.930;2022-09-12T09:18:22;4.10;;;3.70;;
10335;SDS011;5213;53.548;9.930;2022-09-12T09:21:00;3.97;;;3.67;;
10335;SDS011;5213;53.548;9.930;2022-09-12T09:26:12;4.50;;;3.80;;
10335;SDS011;5213;53.548;9.930;2022-09-12T09:31:18;5.45;;;5.03;;
10335;SDS011;5213;53.548;9.930;2022-09-12T09:33:49;4.22;;;3.92;;
10335;SDS011;5213;53.548;9.930;2022-09-12T09:36:19;3.55;;;3.25;;
10335;SDS011;5213;53.548;9.930;2022-09-12T09:38:48;4.45;;;4.00;;
10335;SDS011;5213;53.548;9.930;2022-09-12T09:44:21;4.10;;;3.83;;
10335;SDS011;5213;53.548;9.930;2022-09-12T09:46:48;4.40;;;4.00;;
10335;SDS011;5213;53.548;9.930;2022-09-12T09:49:18;4.00;;;3.70;;
10335;SDS011;5213;53.548;9.930;2022-09-12T09:51:45;3.90;;;3.60;;
10335;SDS011;5213;53.548;9.930;2022-09-12T09:57:02;3.50;;;3.20;;
10335;SDS011;5213;53.548;9.930;2022-09-12T09:59:30;4.60;;;3.00;;
10335;SDS011;5213;53.548;9.930;2022-09-12T10:01:58;3.47;;;2.83;;
10335;SDS011;5213;53.548;9.930;2022-09-12T10:04:53;3.85;;;2.80;;
10335;SDS011;5213;53.548;9.930;2022-09-12T10:07:22;4.07;;;2.63;;
10335;SDS011;5213;53.548;9.930;2022-09-12T10:12:37;2.88;;;2.60;;
10335;SDS011;5213;53.548;9.930;2022-09-12T10:15:12;5.70;;;4.18;;
10335;SDS011;5213;53.548;9.930;2022-09-12T10:17:46;2.63;;;2.42;;
10335;SDS011;5213;53.548;9.930;2022-09-12T10:20:56;2.45;;;2.25;;
10335;SDS011;5213;53.548;9.930;2022-09-12T10:26:03;2.17;;;2.00;;
10335;SDS011;5213;53.548;9.930;2022-09-12T10:31:04;2.05;;;1.85;;
10335;SDS011;5213;53.548;9.930;2022-09-12T10:33:38;2.78;;;1.77;;
10335;SDS011;5213;53.548;9.930;2022-09-12T10:36:17;2.22;;;2.03;;
10335;SDS011;5213;53.548;9.930;2022-09-12T10:38:48;1.67;;;1.58;;
10335;SDS011;5213;53.548;9.930;2022-09-12T10:41:21;1.60;;;1.50;;
10335;SDS011;5213;53.548;9.930;2022-09-12T10:43:48;1.70;;;1.60;;
10335;SDS011;5213;53.548;9.930;2022-09-12T10:48:47;2.65;;;1.80;;
10335;SDS011;5213;53.548;9.930;2022-09-12T10:54:10;2.97;;;1.52;;
10335;SDS011;5213;53.548;9.930;2022-09-12T11:01:54;4.47;;;1.70;;
10335;SDS011;5213;53.548;9.930;2022-09-12T11:10:14;1.60;;;1.50;;
10335;SDS011;5213;53.548;9.930;2022-09-12T11:13:01;2.55;;;1.70;;
10335;SDS011;5213;53.548;9.930;2022-09-12T11:25:30;1.98;;;1.70;;
10335;SDS011;5213;53.548;9.930;2022-09-12T11:30:45;1.30;;;1.30;;
10335;SDS011;5213;53.548;9.930;2022-09-12T11:33:27;1.90;;;1.80;;
10335;SDS011;5213;53.548;9.930;2022-09-12T11:35:56;2.00;;;1.65;;
10335;SDS011;5213;53.548;9.930;2022-09-12T11:45:48;1.80;;;1.70;;
10335;SDS011;5213;53.548;9.930;2022-09-12T11:48:17;1.73;;;1.63;;
10335;SDS011;5213;53.548;9.930;2022-09-12T11:50:45;1.98;;;1.75;;
10335;SDS011;5213;53.548;9.930;2022-09-12T11:53:16;1.90;;;1.80;;
10335;SDS011;5213;53.548;9.930;2022-09-12T11:56:26;1.90;;;1.80;;
10335;SDS011;5213;53.548;9.930;2022-09-12T11:58:33;1.90;;;1.80;;
10335;SDS011;5213;53.548;9.930;2022-09-12T12:01:12;2.05;;;1.88;;
10335;SDS011;5213;53.548;9.930;2022-09-12T12:03:41;1.75;;;1.65;;
10335;SDS011;5213;53.548;9.930;2022-09-12T12:06:16;2.25;;;2.00;;
10335;SDS011;5213;53.548;9.930;2022-09-12T12:08:46;2.13;;;2.00;;
10335;SDS011;5213;53.548;9.930;2022-09-12T12:11:13;3.08;;;2.47;;
10335;SDS011;5213;53.548;9.930;2022-09-12T12:14:22;3.55;;;2.17;;
10335;SDS011;5213;53.548;9.930;2022-09-12T12:16:43;1.88;;;1.77;;
10335;SDS011;5213;53.548;9.930;2022-09-12T12:21:39;2.08;;;1.90;;
10335;SDS011;5213;53.548;9.930;2022-09-12T12:29:11;2.15;;;1.83;;
10335;SDS011;5213;53.548;9.930;2022-09-12T12:34:27;1.85;;;1.75;;
10335;SDS011;5213;53.548;9.930;2022-09-12T12:36:53;2.35;;;1.80;;
10335;SDS011;5213;53.548;9.930;2022-09-12T12:41:58;2.10;;;1.70;;
10335;SDS011;5213;53.548;9.930;2022-09-12T12:47:18;1.60;;;1.52;;
10335;SDS011;5213;53.548;9.930;2022-09-12T12:50:34;2.28;;;2.00;;
10335;SDS011;5213;53.548;9.930;2022-09-12T12:55:29;4.03;;;1.90;;
10335;SDS011;5213;53.548;9.930;2022-09-12T13:01:21;1.73;;;1.60;;
10335;SDS011;5213;53.548;9.930;2022-09-12T13:04:32;1.60;;;1.55;;
10335;SDS011;5213;53.548;9.930;2022-09-12T13:06:38;1.60;;;1.50;;
10335;SDS011;5213;53.548;9.930;2022-09-12T13:09:22;1.40;;;1.40;;
10335;SDS011;5213;53.548;9.930;2022-09-12T13:11:58;2.30;;;1.50;;
10335;SDS011;5213;53.548;9.930;2022-09-12T13:17:07;1.80;;;1.70;;
10335;SDS011;5213;53.548;9.930;2022-09-12T13:19:43;2.05;;;1.88;;
10335;SDS011;5213;53.548;9.930;2022-09-12T13:22:09;1.73;;;1.63;;
10335;SDS011;5213;53.548;9.930;2022-09-12T13:24:42;2.05;;;1.80;;
10335;SDS011;5213;53.548;9.930;2022-09-12T13:32:39;2.80;;;1.95;;
10335;SDS011;5213;53.548;9.930;2022-09-12T13:35:11;2.85;;;1.77;;
10335;SDS011;5213;53.548;9.930;2022-09-12T13:37:58;2.33;;;1.70;;
10335;SDS011;5213;53.548;9.930;2022-09-12T13:40:55;1.98;;;1.70;;
10335;SDS011;5213;53.548;9.930;2022-09-12T13:43:39;2.13;;;2.03;;
10335;SDS011;5213;53.548;9.930;2022-09-12T13:46:07;2.25;;;2.05;;
10335;SDS011;5213;53.548;9.930;2022-09-12T13:48:37;2.10;;;1.90;;
10335;SDS011;5213;53.548;9.930;2022-09-12T13:51:03;2.28;;;2.00;;
10335;SDS011;5213;53.548;9.930;2022-09-12T13:53:38;2.03;;;1.92;;
10335;SDS011;5213;53.548;9.930;2022-09-12T13:56:17;2.20;;;2.00;;
10335;SDS011;5213;53.548;9.930;2022-09-12T13:58:56;3.65;;;2.10;;
10335;SDS011;5213;53.548;9.930;2022-09-12T14:01:34;2.30;;;2.10;;
10335;SDS011;5213;53.548;9.930;2022-09-12T14:04:15;2.33;;;2.10;;
10335;SDS011;5213;53.548;9.930;2022-09-12T14:07:02;2.25;;;2.05;;
10335;SDS011;5213;53.548;9.930;2022-09-12T14:09:39;2.88;;;2.10;;
10335;SDS011;5213;53.548;9.930;2022-09-12T14:12:26;2.58;;;2.10;;
10335;SDS011;5213;53.548;9.930;2022-09-12T14:14:56;2.63;;;2.35;;
10335;SDS011;5213;53.548;9.930;2022-09-12T14:17:23;2.55;;;2.35;;
10335;SDS011;5213;53.548;9.930;2022-09-12T14:19:59;2.53;;;2.30;;
10335;SDS011;5213;53.548;9.930;2022-09-12T14:22:29;2.40;;;2.30;;
10335;SDS011;5213;53.548;9.930;2022-09-12T14:24:56;2.83;;;2.65;;
10335;SDS011;5213;53.548;9.930;2022-09-12T14:27:25;2.60;;;2.40;;
10335;SDS011;5213;53.548;9.930;2022-09-12T14:30:07;3.08;;;2.78;;
10335;SDS011;5213;53.548;9.930;2022-09-12T14:35:26;2.80;;;2.60;;
10335;SDS011;5213;53.548;9.930;2022-09-12T14:37:52;3.65;;;3.10;;
10335;SDS011;5213;53.548;9.930;2022-09-12T14:40:19;3.40;;;2.90;;
10335;SDS011;5213;53.548;9.930;2022-09-12T14:42:47;4.75;;;3.17;;
10335;SDS011;5213;53.548;9.930;2022-09-12T14:48:04;5.20;;;3.05;;
10335;SDS011;5213;53.548;9.930;2022-09-12T14:50:30;2.90;;;2.70;;
10335;SDS011;5213;53.548;9.930;2022-09-12T14:55:44;3.88;;;3.20;;
10335;SDS011;5213;53.548;9.930;2022-09-12T15:00:56;8.75;;;7.43;;
10335;SDS011;5213;53.548;9.930;2022-09-12T15:03:23;4.15;;;3.33;;
10335;SDS011;5213;53.548;9.930;2022-09-12T15:05:59;3.33;;;3.00;;
10335;SDS011;5213;53.548;9.930;2022-09-12T15:08:28;4.18;;;3.03;;
10335;SDS011;5213;53.548;9.930;2022-09-12T15:10:55;3.42;;;3.00;;
10335;SDS011;5213;53.548;9.930;2022-09-12T15:13:26;3.40;;;3.10;;
10335;SDS011;5213;53.548;9.930;2022-09-12T15:15:53;3.30;;;3.10;;
10335;SDS011;5213;53.548;9.930;2022-09-12T15:18:21;3.60;;;3.22;;
10335;SDS011;5213;53.548;9.930;2022-09-12T15:20:51;3.80;;;3.40;;
10335;SDS011;5213;53.548;9.930;2022-09-12T15:24:01;3.45;;;3.15;;
10335;SDS011;5213;53.548;9.930;2022-09-12T15:26:17;4.22;;;3.15;;
10335;SDS011;5213;53.548;9.930;2022-09-12T15:28:46;3.30;;;2.97;;
10335;SDS011;5213;53.548;9.930;2022-09-12T15:33:59;3.30;;;3.00;;
10335;SDS011;5213;53.548;9.930;2022-09-12T15:36:26;3.55;;;3.25;;
10335;SDS011;5213;53.548;9.930;2022-09-12T15:38:53;3.17;;;2.88;;
10335;SDS011;5213;53.548;9.930;2022-09-12T15:41:23;3.20;;;2.95;;
10335;SDS011;5213;53.548;9.930;2022-09-12T15:43:54;3.47;;;3.17;;
10335;SDS011;5213;53.548;9.930;2022-09-12T15:46:20;3.40;;;3.10;;
10335;SDS011;5213;53.548;9.930;2022-09-12T15:48:46;3.10;;;2.90;;
10335;SDS011;5213;53.548;9.930;2022-09-12T15:51:12;4.05;;;3.08;;
10335;SDS011;5213;53.548;9.930;2022-09-12T15:53:40;3.35;;;2.90;;
10335;SDS011;5213;53.548;9.930;2022-09-12T15:56:05;4.75;;;2.95;;
10335;SDS011;5213;53.548;9.930;2022-09-12T15:58:31;3.22;;;3.03;;
10335;SDS011;5213;53.548;9.930;2022-09-12T16:00:57;3.20;;;2.90;;
10335;SDS011;5213;53.548;9.930;2022-09-12T16:03:24;4.43;;;3.28;;
10335;SDS011;5213;53.548;9.930;2022-09-12T16:05:59;3.13;;;2.80;;
10335;SDS011;5213;53.548;9.930;2022-09-12T16:08:26;3.35;;;3.05;;
10335;SDS011;5213;53.548;9.930;2022-09-12T16:10:54;3.10;;;2.90;;
10335;SDS011;5213;53.548;9.930;2022-09-12T16:13:40;3.40;;;3.05;;
10335;SDS011;5213;53.548;9.930;2022-09-12T16:16:06;3.95;;;3.40;;
10335;SDS011;5213;53.548;9.930;2022-09-12T16:18:33;3.90;;;3.50;;
10335;SDS011;5213;53.548;9.930;2022-09-12T16:20:59;3.60;;;3.30;;
10335;SDS011;5213;53.548;9.930;2022-09-12T16:23:24;3.35;;;2.88;;
10335;SDS011;5213;53.548;9.930;2022-09-12T16:26:00;3.53;;;3.20;;
10335;SDS011;5213;53.548;9.930;2022-09-12T16:28:28;3.95;;;3.10;;
10335;SDS011;5213;53.548;9.930;2022-09-12T16:30:55;3.55;;;3.25;;
10335;SDS011;5213;53.548;9.930;2022-09-12T16:33:22;3.45;;;3.15;;
10335;SDS011;5213;53.548;9.930;2022-09-12T16:35:48;3.30;;;3.00;;
10335;SDS011;5213;53.548;9.930;2022-09-12T16:38:15;3.90;;;3.20;;
10335;SDS011;5213;53.548;9.930;2022-09-12T16:40:41;3.88;;;3.20;;
10335;SDS011;5213;53.548;9.930;2022-09-12T16:43:07;4.97;;;3.67;;
10335;SDS011;5213;53.548;9.930;2022-09-12T16:45:33;4.70;;;3.60;;
10335;SDS011;5213;53.548;9.930;2022-09-12T16:47:58;4.95;;;3.55;;
10335;SDS011;5213;53.548;9.930;2022-09-12T16:50:24;5.30;;;4.80;;
10335;SDS011;5213;53.548;9.930;2022-09-12T16:52:50;4.72;;;4.32;;
10335;SDS011;5213;53.548;9.930;2022-09-12T16:55:15;4.80;;;4.40;;
10335;SDS011;5213;53.548;9.930;2022-09-12T16:57:41;5.20;;;4.20;;
10335;SDS011;5213;53.548;9.930;2022-09-12T17:00:07;5.38;;;4.93;;
10335;SDS011;5213;53.548;9.930;2022-09-12T17:02:33;6.68;;;5.03;;
10335;SDS011;5213;53.548;9.930;2022-09-12T17:04:58;7.78;;;6.97;;
10335;SDS011;5213;53.548;9.930;2022-09-12T17:07:24;5.78;;;5.20;;
10335;SDS011;5213;53.548;9.930;2022-09-12T17:09:50;5.63;;;4.70;;
10335;SDS011;5213;53.548;9.930;2022-09-12T17:12:16;5.65;;;5.13;;
10335;SDS011;5213;53.548;9.930;2022-09-12T17:14:41;4.88;;;4.47;;
10335;SDS011;5213;53.548;9.930;2022-09-12T17:17:07;4.68;;;4.20;;
10335;SDS011;5213;53.548;9.930;2022-09-12T17:19:32;4.95;;;4.55;;
10335;SDS011;5213;53.548;9.930;2022-09-12T17:21:58;5.00;;;4.60;;
10335;SDS011;5213;53.548;9.930;2022-09-12T17:24:24;6.82;;;5.35;;
10335;SDS011;5213;53.548;9.930;2022-09-12T17:26:50;7.45;;;4.57;;
10335;SDS011;5213;53.548;9.930;2022-09-12T17:29:16;5.13;;;4.72;;
10335;SDS011;5213;53.548;9.930;2022-09-12T17:31:42;5.00;;;4.60;;
10335;SDS011;5213;53.548;9.930;2022-09-12T17:34:08;5.35;;;4.90;;
10335;SDS011;5213;53.548;9.930;2022-09-12T17:36:38;5.40;;;5.00;;
10335;SDS011;5213;53.548;9.930;2022-09-12T17:39:04;5.15;;;4.63;;
10335;SDS011;5213;53.548;9.930;2022-09-12T17:41:30;5.20;;;4.70;;
10335;SDS011;5213;53.548;9.930;2022-09-12T17:43:56;6.45;;;5.85;;